Terminal Aerodrome Forecast
Issued by NWS

Current Version | Previous Version | Text Only | Print | Product List | Glossary Off
Versions: 1 2 3 4 5 6 7 8 9 10 11 12 13 14 15 16 17 18 19 20 21 22 23

000
FTUS41 KRLX 220245 AAA
TAFCKB
TAF AMD
KCKB 220245Z 2202/2224 30005KT P6SM SCT080
     FM220700 01006KT P6SM VCSH OVC040
     FM221100 01006KT 6SM SHRA OVC025
     FM222000 01005KT 6SM SHRA OVC040=

USA.gov is the U.S. government's official web portal to all federal, state and local government web resources and services.